createdAt,value
2022-11-27T00:01:46.453Z,9.52
2022-11-27T00:06:47.744Z,9.27
2022-11-27T00:11:49.101Z,9.68
2022-11-27T00:16:50.667Z,9.18
2022-11-27T00:21:52.012Z,13.00
2022-11-27T00:26:53.384Z,15.63
2022-11-27T00:31:56.246Z,15.50
2022-11-27T00:36:57.556Z,11.00
2022-11-27T00:41:59.127Z,11.40
2022-11-27T00:47:00.598Z,11.23
2022-11-27T00:52:02.415Z,12.25
2022-11-27T00:57:04.665Z,11.63
2022-11-27T01:02:06.268Z,8.95
2022-11-27T01:07:07.669Z,10.45
2022-11-27T01:12:09.224Z,11.38
2022-11-27T01:17:10.598Z,8.40
2022-11-27T01:22:11.935Z,12.43
2022-11-27T01:27:14.864Z,10.50
2022-11-27T01:32:16.438Z,13.90
2022-11-27T01:37:17.841Z,13.40
2022-11-27T01:42:19.338Z,8.95
2022-11-27T01:47:31.278Z,11.00
2022-11-27T01:52:37.649Z,9.15
2022-11-27T01:57:47.402Z,10.52
2022-11-27T02:02:49.237Z,10.63
2022-11-27T02:07:52.672Z,10.48
2022-11-27T02:13:03.895Z,12.07
2022-11-27T02:18:23.242Z,9.30
2022-11-27T02:23:43.467Z,10.15
2022-11-27T02:29:07.652Z,11.85
2022-11-27T02:34:35.802Z,10.07
2022-11-27T02:39:57.363Z,11.75
2022-11-27T02:45:03.905Z,11.55
2022-11-27T02:50:09.135Z,11.57
2022-11-27T02:55:15.039Z,10.10
2022-11-27T03:00:17.637Z,9.82
2022-11-27T03:05:21.635Z,12.55
2022-11-27T03:10:34.278Z,11.23
2022-11-27T03:15:49.298Z,11.82
2022-11-27T03:25:56.790Z,10.13
2022-11-27T03:30:58.341Z,13.50
2022-11-27T03:35:59.872Z,11.88
2022-11-27T03:41:11.883Z,15.52
2022-11-27T03:46:30.093Z,12.63
2022-11-27T03:52:07.981Z,13.32
2022-11-27T03:57:20.294Z,11.98
2022-11-27T04:02:40.303Z,15.75
2022-11-27T04:07:42.236Z,11.70
2022-11-27T04:12:43.608Z,13.57
2022-11-27T04:17:45.073Z,10.90
2022-11-27T04:22:46.577Z,12.27
2022-11-27T04:27:47.904Z,13.50
2022-11-27T04:32:49.268Z,12.23
2022-11-27T04:37:50.661Z,15.35
2022-11-27T04:42:52.056Z,13.20
2022-11-27T04:47:53.448Z,14.95
2022-11-27T04:52:54.772Z,16.15
2022-11-27T04:57:56.038Z,13.90
2022-11-27T05:02:57.439Z,11.82
2022-11-27T05:07:58.944Z,12.95
2022-11-27T05:13:00.292Z,11.35
2022-11-27T05:18:01.573Z,13.18
2022-11-27T05:23:02.966Z,10.73
2022-11-27T05:28:06.169Z,12.50
2022-11-27T05:33:07.584Z,12.02
2022-11-27T05:38:09.361Z,12.25
2022-11-27T05:43:10.705Z,13.13
2022-11-27T05:48:12.057Z,16.20
2022-11-27T05:53:13.615Z,11.38
2022-11-27T05:58:14.975Z,10.07
2022-11-27T06:03:16.312Z,14.30
2022-11-27T06:08:17.916Z,12.82
2022-11-27T06:13:19.405Z,12.27
2022-11-27T06:18:20.847Z,12.80
2022-11-27T06:23:22.383Z,13.65
2022-11-27T06:28:23.726Z,11.35
2022-11-27T06:33:25.074Z,10.88
2022-11-27T06:38:26.390Z,14.05
2022-11-27T06:43:27.783Z,11.45
2022-11-27T06:48:30.206Z,11.70
2022-11-27T06:53:34.435Z,14.68
2022-11-27T06:58:38.679Z,11.87
2022-11-27T07:03:40.630Z,14.23
2022-11-27T07:08:42.457Z,11.55
2022-11-27T07:13:45.001Z,14.70
2022-11-27T07:18:49.320Z,12.50
2022-11-27T07:23:51.138Z,14.52
2022-11-27T07:28:53.333Z,11.50
2022-11-27T07:33:55.002Z,12.63
2022-11-27T07:38:58.012Z,15.27
2022-11-27T07:43:59.465Z,11.00
2022-11-27T07:49:01.267Z,11.52
2022-11-27T07:54:02.814Z,11.32
2022-11-27T07:59:04.294Z,10.15
2022-11-27T08:04:05.637Z,13.25
2022-11-27T08:09:06.944Z,11.27
2022-11-27T08:14:16.159Z,11.13
2022-11-27T08:19:17.491Z,13.75
2022-11-27T08:24:18.820Z,11.50
2022-11-27T08:29:20.259Z,12.23
2022-11-27T08:34:21.646Z,9.40
2022-11-27T08:39:23.292Z,10.85
2022-11-27T08:44:24.928Z,9.52
2022-11-27T08:49:26.383Z,9.93
2022-11-27T08:54:27.768Z,10.60
2022-11-27T08:59:29.393Z,12.32
2022-11-27T09:04:30.768Z,9.13
2022-11-27T09:09:32.200Z,9.63
2022-11-27T09:14:33.540Z,8.88
2022-11-27T09:19:35.073Z,8.88
2022-11-27T09:24:36.777Z,9.07
2022-11-27T09:29:38.289Z,8.52
2022-11-27T09:34:39.945Z,7.60
2022-11-27T09:39:41.717Z,9.82
2022-11-27T09:44:52.287Z,9.32
2022-11-27T09:49:59.815Z,9.27
2022-11-27T09:55:09.843Z,9.63
2022-11-27T10:00:17.867Z,9.05
2022-11-27T10:05:23.100Z,8.80
2022-11-27T10:10:51.013Z,7.85
2022-11-27T10:16:10.357Z,7.47
2022-11-27T10:21:30.593Z,6.82
2022-11-27T10:27:02.394Z,7.47
2022-11-27T10:32:46.988Z,7.05
2022-11-27T10:37:42.944Z,6.47
2022-11-27T10:43:07.553Z,7.32
2022-11-27T10:53:21.793Z,7.50
2022-11-27T10:58:35.240Z,7.28
2022-11-27T11:03:37.629Z,6.82
2022-11-27T11:08:39.109Z,6.45
2022-11-27T11:13:40.437Z,6.53
2022-11-27T11:18:50.541Z,6.65
2022-11-27T11:24:20.907Z,5.78
2022-11-27T11:29:28.279Z,7.13
2022-11-27T11:34:31.205Z,7.68
2022-11-27T11:39:44.727Z,7.78
2022-11-27T11:44:51.864Z,5.57
2022-11-27T11:49:55.010Z,5.68
2022-11-27T11:55:31.597Z,5.47
2022-11-27T12:01:18.903Z,5.97
2022-11-27T12:06:31.263Z,6.50
2022-11-27T12:11:43.593Z,5.18
2022-11-27T12:16:56.241Z,7.25
2022-11-27T12:21:57.780Z,4.60
2022-11-27T12:27:08.291Z,16.70
2022-11-27T12:32:34.476Z,23.85
2022-11-27T12:37:57.352Z,11.18
2022-11-27T12:43:04.696Z,9.85
2022-11-27T12:48:14.658Z,10.70
2022-11-27T12:53:39.593Z,16.60
2022-11-27T12:58:45.395Z,20.02
2022-11-27T13:04:05.025Z,7.82
2022-11-27T13:09:16.143Z,9.38
2022-11-27T13:14:24.003Z,3.15
2022-11-27T13:19:32.806Z,4.40
2022-11-27T13:24:35.575Z,8.20
2022-11-27T13:29:47.097Z,3.10
2022-11-27T13:34:50.208Z,3.72
2022-11-27T13:40:00.056Z,5.68
2022-11-27T13:45:12.312Z,6.13
2022-11-27T13:50:18.134Z,3.55
2022-11-27T13:55:26.204Z,4.75
2022-11-27T14:00:42.634Z,4.97
2022-11-27T14:05:45.452Z,5.22
2022-11-27T14:11:03.476Z,4.40
2022-11-27T14:16:23.002Z,5.47
2022-11-27T14:21:45.187Z,4.18
2022-11-27T14:26:46.549Z,4.53
2022-11-27T14:31:57.452Z,3.95
2022-11-27T14:37:00.256Z,4.68
2022-11-27T14:42:23.054Z,5.82
2022-11-27T14:47:26.660Z,4.63
2022-11-27T14:52:28.670Z,4.40
2022-11-27T14:57:30.858Z,6.22
2022-11-27T15:02:32.696Z,6.05
2022-11-27T15:07:45.247Z,5.03
2022-11-27T15:12:49.649Z,6.60
2022-11-27T15:17:57.657Z,4.90
2022-11-27T15:23:00.192Z,6.78
2022-11-27T15:28:02.936Z,5.13
2022-11-27T15:33:04.301Z,5.68
2022-11-27T15:38:10.822Z,5.22
2022-11-27T15:43:16.375Z,11.63
2022-11-27T15:48:19.494Z,5.30
2022-11-27T15:53:21.006Z,5.55
2022-11-27T15:58:22.407Z,6.07
2022-11-27T16:03:23.806Z,5.10
2022-11-27T16:08:25.217Z,6.40
2022-11-27T16:13:26.585Z,6.60
2022-11-27T16:18:28.309Z,7.05
2022-11-27T16:23:29.736Z,8.05
2022-11-27T16:28:32.329Z,8.93
2022-11-27T16:33:33.760Z,7.95
2022-11-27T16:38:35.681Z,7.82
2022-11-27T16:43:39.775Z,8.00
2022-11-27T16:48:42.474Z,8.80
2022-11-27T16:53:46.192Z,8.95
2022-11-27T16:58:48.178Z,10.00
2022-11-27T17:03:50.483Z,9.65
2022-11-27T17:08:53.943Z,11.13
2022-11-27T17:14:01.145Z,9.52
2022-11-27T17:19:02.542Z,8.60
2022-11-27T17:24:14.680Z,9.38
2022-11-27T17:29:20.768Z,9.52
2022-11-27T17:34:22.404Z,10.05
2022-11-27T17:39:23.787Z,9.85
2022-11-27T17:44:25.160Z,10.93
2022-11-27T17:49:26.844Z,9.13
2022-11-27T17:54:28.180Z,8.55
2022-11-27T17:59:29.758Z,9.38
2022-11-27T18:04:32.251Z,8.77
2022-11-27T18:09:33.780Z,8.75
2022-11-27T18:14:35.131Z,9.18
2022-11-27T18:19:36.604Z,8.15
2022-11-27T18:24:41.668Z,9.20
2022-11-27T18:29:44.892Z,8.50
2022-11-27T18:34:46.803Z,8.80
2022-11-27T18:39:48.358Z,8.25
2022-11-27T18:44:49.828Z,7.50
2022-11-27T18:49:51.272Z,7.82
2022-11-27T18:54:52.604Z,7.97
2022-11-27T18:59:54.558Z,9.48
2022-11-27T19:04:55.858Z,8.23
2022-11-27T19:09:57.428Z,8.30
2022-11-27T19:14:58.999Z,8.00
2022-11-27T19:20:00.509Z,9.05
2022-11-27T19:25:02.184Z,8.15
2022-11-27T19:30:03.842Z,7.85
2022-11-27T19:35:07.376Z,8.35
2022-11-27T19:40:09.487Z,9.43
2022-11-27T19:45:11.061Z,8.50
2022-11-27T19:50:14.033Z,9.60
2022-11-27T19:55:15.348Z,8.15
2022-11-27T20:00:17.130Z,9.73
2022-11-27T20:05:18.719Z,9.38
2022-11-27T20:10:20.155Z,9.52
2022-11-27T20:15:21.676Z,9.60
2022-11-27T20:20:23.158Z,9.55
2022-11-27T20:25:25.851Z,10.68
2022-11-27T20:30:27.354Z,9.55
2022-11-27T20:35:28.797Z,9.50
2022-11-27T20:40:30.198Z,9.82
2022-11-27T20:45:31.738Z,9.65
2022-11-27T20:50:34.487Z,10.63
2022-11-27T20:55:35.883Z,9.25
2022-11-27T21:00:37.473Z,8.65
2022-11-27T21:05:43.076Z,9.27
2022-11-27T21:10:44.466Z,9.07
2022-11-27T21:15:47.359Z,8.15
2022-11-27T21:20:48.866Z,8.43
2022-11-27T21:25:50.353Z,7.95
2022-11-27T21:30:51.705Z,9.48
2022-11-27T21:35:56.110Z,9.10
2022-11-27T21:40:57.483Z,9.00
2022-11-27T21:46:05.209Z,10.50
2022-11-27T21:51:12.558Z,8.43
2022-11-27T21:56:18.032Z,9.25
2022-11-27T22:01:23.274Z,8.57
2022-11-27T22:06:28.890Z,9.07
2022-11-27T22:11:30.674Z,9.45
2022-11-27T22:16:35.985Z,9.27
2022-11-27T22:21:40.084Z,8.77
2022-11-27T22:26:41.433Z,9.35
2022-11-27T22:31:42.962Z,8.80
2022-11-27T22:36:44.777Z,10.40
2022-11-27T22:41:46.135Z,9.77
2022-11-27T22:46:47.667Z,9.55
2022-11-27T22:51:49.166Z,9.05
2022-11-27T22:56:50.723Z,8.48
2022-11-27T23:01:52.029Z,9.05
2022-11-27T23:06:53.615Z,9.43
2022-11-27T23:11:56.461Z,9.80
2022-11-27T23:16:58.423Z,8.93
2022-11-27T23:21:59.878Z,8.68
2022-11-27T23:27:01.242Z,11.45
2022-11-27T23:32:02.656Z,9.85
2022-11-27T23:37:04.014Z,9.10
2022-11-27T23:42:05.359Z,9.55
2022-11-27T23:47:06.698Z,9.60
2022-11-27T23:52:11.906Z,8.43
2022-11-27T23:57:17.452Z,10.48
